sensor_id;sensor_type;location;lat;lon;timestamp;P1;durP1;ratioP1;P2;durP2;ratioP2
14554;SDS011;7364;50.870;4.722;2023-05-07T00:01:08;11.73;;;6.90;;
14554;SDS011;7364;50.870;4.722;2023-05-07T00:03:37;10.50;;;6.00;;
14554;SDS011;7364;50.870;4.722;2023-05-07T00:06:05;12.40;;;7.47;;
14554;SDS011;7364;50.870;4.722;2023-05-07T00:08:33;8.30;;;6.20;;
14554;SDS011;7364;50.870;4.722;2023-05-07T00:11:00;12.77;;;6.53;;
14554;SDS011;7364;50.870;4.722;2023-05-07T00:13:27;7.17;;;5.40;;
14554;SDS011;7364;50.870;4.722;2023-05-07T00:16:00;10.27;;;6.43;;
14554;SDS011;7364;50.870;4.722;2023-05-07T00:18:27;12.70;;;6.80;;
14554;SDS011;7364;50.870;4.722;2023-05-07T00:20:56;8.97;;;6.23;;
14554;SDS011;7364;50.870;4.722;2023-05-07T00:23:24;9.13;;;6.90;;
14554;SDS011;7364;50.870;4.722;2023-05-07T00:25:51;9.03;;;7.07;;
14554;SDS011;7364;50.870;4.722;2023-05-07T00:28:18;10.90;;;6.57;;
14554;SDS011;7364;50.870;4.722;2023-05-07T00:30:45;8.00;;;6.13;;
14554;SDS011;7364;50.870;4.722;2023-05-07T00:33:12;8.60;;;5.90;;
14554;SDS011;7364;50.870;4.722;2023-05-07T00:35:40;8.27;;;5.70;;
14554;SDS011;7364;50.870;4.722;2023-05-07T00:38:09;6.67;;;5.73;;
14554;SDS011;7364;50.870;4.722;2023-05-07T00:40:36;9.27;;;5.70;;
14554;SDS011;7364;50.870;4.722;2023-05-07T00:43:03;7.33;;;5.97;;
14554;SDS011;7364;50.870;4.722;2023-05-07T00:45:31;9.53;;;7.03;;
14554;SDS011;7364;50.870;4.722;2023-05-07T00:48:00;8.47;;;7.57;;
14554;SDS011;7364;50.870;4.722;2023-05-07T00:50:28;13.40;;;7.27;;
14554;SDS011;7364;50.870;4.722;2023-05-07T00:52:57;8.63;;;7.70;;
14554;SDS011;7364;50.870;4.722;2023-05-07T00:55:26;8.60;;;7.40;;
14554;SDS011;7364;50.870;4.722;2023-05-07T00:57:53;10.03;;;7.47;;
14554;SDS011;7364;50.870;4.722;2023-05-07T01:00:20;14.07;;;7.50;;
14554;SDS011;7364;50.870;4.722;2023-05-07T01:02:48;9.57;;;6.67;;
14554;SDS011;7364;50.870;4.722;2023-05-07T01:05:15;7.53;;;6.60;;
14554;SDS011;7364;50.870;4.722;2023-05-07T01:07:44;9.67;;;7.80;;
14554;SDS011;7364;50.870;4.722;2023-05-07T01:10:12;8.23;;;6.70;;
14554;SDS011;7364;50.870;4.722;2023-05-07T01:12:41;8.43;;;6.80;;
14554;SDS011;7364;50.870;4.722;2023-05-07T01:15:09;7.50;;;6.70;;
14554;SDS011;7364;50.870;4.722;2023-05-07T01:17:37;7.70;;;6.20;;
14554;SDS011;7364;50.870;4.722;2023-05-07T01:20:09;8.80;;;7.37;;
14554;SDS011;7364;50.870;4.722;2023-05-07T01:22:38;7.47;;;6.57;;
14554;SDS011;7364;50.870;4.722;2023-05-07T01:25:06;11.97;;;6.97;;
14554;SDS011;7364;50.870;4.722;2023-05-07T01:27:34;11.40;;;6.73;;
14554;SDS011;7364;50.870;4.722;2023-05-07T01:30:02;9.33;;;7.13;;
14554;SDS011;7364;50.870;4.722;2023-05-07T01:32:31;6.30;;;5.67;;
14554;SDS011;7364;50.870;4.722;2023-05-07T01:35:02;8.70;;;7.07;;
14554;SDS011;7364;50.870;4.722;2023-05-07T01:37:33;7.80;;;7.00;;
14554;SDS011;7364;50.870;4.722;2023-05-07T01:40:03;11.33;;;7.80;;
14554;SDS011;7364;50.870;4.722;2023-05-07T01:42:32;9.87;;;8.00;;
14554;SDS011;7364;50.870;4.722;2023-05-07T01:45:00;11.07;;;8.73;;
14554;SDS011;7364;50.870;4.722;2023-05-07T01:47:27;12.57;;;8.50;;
14554;SDS011;7364;50.870;4.722;2023-05-07T01:49:56;9.00;;;7.30;;
14554;SDS011;7364;50.870;4.722;2023-05-07T01:52:27;11.27;;;8.53;;
14554;SDS011;7364;50.870;4.722;2023-05-07T01:54:55;10.67;;;8.30;;
14554;SDS011;7364;50.870;4.722;2023-05-07T01:57:23;11.30;;;7.47;;
14554;SDS011;7364;50.870;4.722;2023-05-07T01:59:51;11.57;;;8.03;;
14554;SDS011;7364;50.870;4.722;2023-05-07T02:02:18;10.47;;;8.10;;
14554;SDS011;7364;50.870;4.722;2023-05-07T02:04:45;9.20;;;8.33;;
14554;SDS011;7364;50.870;4.722;2023-05-07T02:07:13;9.13;;;8.23;;
14554;SDS011;7364;50.870;4.722;2023-05-07T02:09:40;11.33;;;9.00;;
14554;SDS011;7364;50.870;4.722;2023-05-07T02:12:07;10.40;;;8.40;;
14554;SDS011;7364;50.870;4.722;2023-05-07T02:14:36;9.53;;;8.37;;
14554;SDS011;7364;50.870;4.722;2023-05-07T02:17:03;11.07;;;8.97;;
14554;SDS011;7364;50.870;4.722;2023-05-07T02:19:30;12.13;;;8.90;;
14554;SDS011;7364;50.870;4.722;2023-05-07T02:21:57;10.57;;;9.00;;
14554;SDS011;7364;50.870;4.722;2023-05-07T02:24:24;10.50;;;8.90;;
14554;SDS011;7364;50.870;4.722;2023-05-07T02:26:52;10.43;;;8.63;;
14554;SDS011;7364;50.870;4.722;2023-05-07T02:29:19;13.23;;;9.43;;
14554;SDS011;7364;50.870;4.722;2023-05-07T02:31:47;9.90;;;8.57;;
14554;SDS011;7364;50.870;4.722;2023-05-07T02:34:18;10.30;;;9.30;;
14554;SDS011;7364;50.870;4.722;2023-05-07T02:36:45;10.47;;;9.20;;
14554;SDS011;7364;50.870;4.722;2023-05-07T02:39:13;11.63;;;9.33;;
14554;SDS011;7364;50.870;4.722;2023-05-07T02:41:40;11.27;;;8.60;;
14554;SDS011;7364;50.870;4.722;2023-05-07T02:44:07;11.13;;;9.67;;
14554;SDS011;7364;50.870;4.722;2023-05-07T02:46:35;10.63;;;9.03;;
14554;SDS011;7364;50.870;4.722;2023-05-07T02:49:04;12.87;;;10.53;;
14554;SDS011;7364;50.870;4.722;2023-05-07T02:51:31;13.33;;;10.00;;
14554;SDS011;7364;50.870;4.722;2023-05-07T02:53:58;10.67;;;9.57;;
14554;SDS011;7364;50.870;4.722;2023-05-07T02:56:26;10.97;;;9.90;;
14554;SDS011;7364;50.870;4.722;2023-05-07T02:58:53;9.57;;;8.57;;
14554;SDS011;7364;50.870;4.722;2023-05-07T03:01:20;10.13;;;9.03;;
14554;SDS011;7364;50.870;4.722;2023-05-07T03:03:48;10.17;;;9.03;;
14554;SDS011;7364;50.870;4.722;2023-05-07T03:06:16;12.00;;;8.90;;
14554;SDS011;7364;50.870;4.722;2023-05-07T03:08:43;10.83;;;9.67;;
14554;SDS011;7364;50.870;4.722;2023-05-07T03:11:11;11.67;;;10.47;;
14554;SDS011;7364;50.870;4.722;2023-05-07T03:13:38;10.47;;;9.37;;
14554;SDS011;7364;50.870;4.722;2023-05-07T03:16:05;12.70;;;9.47;;
14554;SDS011;7364;50.870;4.722;2023-05-07T03:18:33;11.60;;;9.83;;
14554;SDS011;7364;50.870;4.722;2023-05-07T03:21:00;13.73;;;10.23;;
14554;SDS011;7364;50.870;4.722;2023-05-07T03:23:29;14.13;;;11.23;;
14554;SDS011;7364;50.870;4.722;2023-05-07T03:25:56;12.10;;;10.93;;
14554;SDS011;7364;50.870;4.722;2023-05-07T03:28:24;12.23;;;10.80;;
14554;SDS011;7364;50.870;4.722;2023-05-07T03:30:51;12.63;;;11.23;;
14554;SDS011;7364;50.870;4.722;2023-05-07T03:33:18;13.30;;;11.67;;
14554;SDS011;7364;50.870;4.722;2023-05-07T03:35:46;14.57;;;13.07;;
14554;SDS011;7364;50.870;4.722;2023-05-07T03:38:13;13.03;;;11.60;;
14554;SDS011;7364;50.870;4.722;2023-05-07T03:40:42;14.97;;;12.73;;
14554;SDS011;7364;50.870;4.722;2023-05-07T03:43:09;15.57;;;12.23;;
14554;SDS011;7364;50.870;4.722;2023-05-07T03:45:36;13.93;;;12.43;;
14554;SDS011;7364;50.870;4.722;2023-05-07T03:48:04;13.83;;;12.10;;
14554;SDS011;7364;50.870;4.722;2023-05-07T03:50:31;12.93;;;11.50;;
14554;SDS011;7364;50.870;4.722;2023-05-07T03:52:58;12.80;;;11.40;;
14554;SDS011;7364;50.870;4.722;2023-05-07T03:55:26;12.50;;;11.27;;
14554;SDS011;7364;50.870;4.722;2023-05-07T03:57:55;17.40;;;12.80;;
14554;SDS011;7364;50.870;4.722;2023-05-07T04:00:22;14.77;;;12.93;;
14554;SDS011;7364;50.870;4.722;2023-05-07T04:02:50;15.20;;;13.13;;
14554;SDS011;7364;50.870;4.722;2023-05-07T04:05:17;13.27;;;11.97;;
14554;SDS011;7364;50.870;4.722;2023-05-07T04:07:44;14.57;;;13.07;;
14554;SDS011;7364;50.870;4.722;2023-05-07T04:10:12;15.50;;;12.73;;
14554;SDS011;7364;50.870;4.722;2023-05-07T04:12:40;17.87;;;13.70;;
14554;SDS011;7364;50.870;4.722;2023-05-07T04:15:09;14.37;;;12.87;;
14554;SDS011;7364;50.870;4.722;2023-05-07T04:17:36;13.20;;;11.73;;
14554;SDS011;7364;50.870;4.722;2023-05-07T04:20:04;15.77;;;11.93;;
14554;SDS011;7364;50.870;4.722;2023-05-07T04:22:33;12.57;;;11.33;;
14554;SDS011;7364;50.870;4.722;2023-05-07T04:25:00;13.33;;;12.03;;
14554;SDS011;7364;50.870;4.722;2023-05-07T04:27:27;14.90;;;13.40;;
14554;SDS011;7364;50.870;4.722;2023-05-07T04:29:54;13.83;;;12.63;;
14554;SDS011;7364;50.870;4.722;2023-05-07T04:32:23;15.07;;;13.53;;
14554;SDS011;7364;50.870;4.722;2023-05-07T04:34:51;14.50;;;12.77;;
14554;SDS011;7364;50.870;4.722;2023-05-07T04:37:18;14.37;;;12.30;;
14554;SDS011;7364;50.870;4.722;2023-05-07T04:39:45;14.77;;;12.60;;
14554;SDS011;7364;50.870;4.722;2023-05-07T04:42:14;13.73;;;12.30;;
14554;SDS011;7364;50.870;4.722;2023-05-07T04:44:42;13.87;;;12.57;;
14554;SDS011;7364;50.870;4.722;2023-05-07T04:47:09;14.47;;;12.40;;
14554;SDS011;7364;50.870;4.722;2023-05-07T04:49:38;14.43;;;12.93;;
14554;SDS011;7364;50.870;4.722;2023-05-07T04:52:05;16.70;;;13.10;;
14554;SDS011;7364;50.870;4.722;2023-05-07T04:54:33;14.80;;;13.03;;
14554;SDS011;7364;50.870;4.722;2023-05-07T04:57:00;13.93;;;12.53;;
14554;SDS011;7364;50.870;4.722;2023-05-07T04:59:29;15.53;;;13.93;;
14554;SDS011;7364;50.870;4.722;2023-05-07T05:01:57;15.20;;;12.57;;
14554;SDS011;7364;50.870;4.722;2023-05-07T05:04:24;16.20;;;13.07;;
14554;SDS011;7364;50.870;4.722;2023-05-07T05:06:53;14.13;;;12.33;;
14554;SDS011;7364;50.870;4.722;2023-05-07T05:09:20;15.00;;;13.43;;
14554;SDS011;7364;50.870;4.722;2023-05-07T05:11:47;15.07;;;13.60;;
14554;SDS011;7364;50.870;4.722;2023-05-07T05:14:15;15.67;;;14.17;;
14554;SDS011;7364;50.870;4.722;2023-05-07T05:16:42;15.07;;;13.83;;
14554;SDS011;7364;50.870;4.722;2023-05-07T05:19:09;19.30;;;13.97;;
14554;SDS011;7364;50.870;4.722;2023-05-07T05:21:36;15.33;;;12.87;;
14554;SDS011;7364;50.870;4.722;2023-05-07T05:24:05;15.47;;;12.53;;
14554;SDS011;7364;50.870;4.722;2023-05-07T05:26:33;15.20;;;13.63;;
14554;SDS011;7364;50.870;4.722;2023-05-07T05:29:00;15.33;;;12.37;;
14554;SDS011;7364;50.870;4.722;2023-05-07T05:31:27;14.27;;;12.77;;
14554;SDS011;7364;50.870;4.722;2023-05-07T05:33:56;16.10;;;13.13;;
14554;SDS011;7364;50.870;4.722;2023-05-07T05:36:23;16.17;;;14.27;;
14554;SDS011;7364;50.870;4.722;2023-05-07T05:38:50;14.77;;;13.27;;
14554;SDS011;7364;50.870;4.722;2023-05-07T05:41:19;13.63;;;12.37;;
14554;SDS011;7364;50.870;4.722;2023-05-07T05:43:46;14.27;;;12.70;;
14554;SDS011;7364;50.870;4.722;2023-05-07T05:46:15;16.20;;;12.93;;
14554;SDS011;7364;50.870;4.722;2023-05-07T05:48:42;13.73;;;12.43;;
14554;SDS011;7364;50.870;4.722;2023-05-07T05:51:09;14.87;;;13.03;;
14554;SDS011;7364;50.870;4.722;2023-05-07T05:53:36;13.60;;;12.30;;
14554;SDS011;7364;50.870;4.722;2023-05-07T05:56:04;16.63;;;14.10;;
14554;SDS011;7364;50.870;4.722;2023-05-07T05:58:33;14.43;;;13.03;;
14554;SDS011;7364;50.870;4.722;2023-05-07T06:01:00;15.60;;;14.00;;
14554;SDS011;7364;50.870;4.722;2023-05-07T06:03:29;15.70;;;13.23;;
14554;SDS011;7364;50.870;4.722;2023-05-07T06:05:57;13.83;;;12.40;;
14554;SDS011;7364;50.870;4.722;2023-05-07T06:08:25;15.10;;;12.20;;
14554;SDS011;7364;50.870;4.722;2023-05-07T06:10:52;14.17;;;12.20;;
14554;SDS011;7364;50.870;4.722;2023-05-07T06:13:19;13.17;;;11.90;;
14554;SDS011;7364;50.870;4.722;2023-05-07T06:15:48;13.93;;;12.10;;
14554;SDS011;7364;50.870;4.722;2023-05-07T06:18:15;12.83;;;11.53;;
14554;SDS011;7364;50.870;4.722;2023-05-07T06:20:43;14.20;;;12.07;;
14554;SDS011;7364;50.870;4.722;2023-05-07T06:23:10;16.83;;;11.37;;
14554;SDS011;7364;50.870;4.722;2023-05-07T06:25:37;15.53;;;11.40;;
14554;SDS011;7364;50.870;4.722;2023-05-07T06:28:05;12.27;;;10.93;;
14554;SDS011;7364;50.870;4.722;2023-05-07T06:30:33;12.83;;;11.27;;
14554;SDS011;7364;50.870;4.722;2023-05-07T06:33:02;11.90;;;9.60;;
14554;SDS011;7364;50.870;4.722;2023-05-07T06:35:29;11.40;;;9.87;;
14554;SDS011;7364;50.870;4.722;2023-05-07T06:37:56;11.47;;;10.23;;
14554;SDS011;7364;50.870;4.722;2023-05-07T06:40:24;13.30;;;10.17;;
14554;SDS011;7364;50.870;4.722;2023-05-07T06:42:51;14.07;;;8.97;;
14554;SDS011;7364;50.870;4.722;2023-05-07T06:45:19;10.30;;;8.70;;
14554;SDS011;7364;50.870;4.722;2023-05-07T06:47:46;11.17;;;7.00;;
14554;SDS011;7364;50.870;4.722;2023-05-07T06:50:15;9.07;;;6.73;;
14554;SDS011;7364;50.870;4.722;2023-05-07T06:52:42;9.40;;;6.30;;
14554;SDS011;7364;50.870;4.722;2023-05-07T06:55:10;8.13;;;5.77;;
14554;SDS011;7364;50.870;4.722;2023-05-07T06:57:37;8.77;;;6.03;;
14554;SDS011;7364;50.870;4.722;2023-05-07T07:00:05;9.00;;;6.77;;
14554;SDS011;7364;50.870;4.722;2023-05-07T07:02:34;8.77;;;6.00;;
14554;SDS011;7364;50.870;4.722;2023-05-07T07:05:01;10.57;;;6.10;;
14554;SDS011;7364;50.870;4.722;2023-05-07T07:07:30;10.67;;;6.03;;
14554;SDS011;7364;50.870;4.722;2023-05-07T07:09:57;8.67;;;5.30;;
14554;SDS011;7364;50.870;4.722;2023-05-07T07:12:24;8.03;;;4.50;;
14554;SDS011;7364;50.870;4.722;2023-05-07T07:14:52;7.43;;;5.27;;
14554;SDS011;7364;50.870;4.722;2023-05-07T07:17:19;10.13;;;5.47;;
14554;SDS011;7364;50.870;4.722;2023-05-07T07:19:46;10.97;;;5.50;;
14554;SDS011;7364;50.870;4.722;2023-05-07T07:22:14;7.53;;;4.83;;
14554;SDS011;7364;50.870;4.722;2023-05-07T07:24:42;6.37;;;4.80;;
14554;SDS011;7364;50.870;4.722;2023-05-07T07:27:10;8.27;;;4.80;;
14554;SDS011;7364;50.870;4.722;2023-05-07T07:29:37;10.07;;;5.17;;
14554;SDS011;7364;50.870;4.722;2023-05-07T07:32:04;10.53;;;5.53;;
14554;SDS011;7364;50.870;4.722;2023-05-07T07:34:32;8.93;;;5.20;;
14554;SDS011;7364;50.870;4.722;2023-05-07T07:36:59;8.50;;;5.50;;
14554;SDS011;7364;50.870;4.722;2023-05-07T07:39:30;6.07;;;4.80;;
14554;SDS011;7364;50.870;4.722;2023-05-07T07:41:59;6.77;;;5.70;;
14554;SDS011;7364;50.870;4.722;2023-05-07T07:44:27;9.57;;;4.93;;
14554;SDS011;7364;50.870;4.722;2023-05-07T07:46:55;11.57;;;5.50;;
14554;SDS011;7364;50.870;4.722;2023-05-07T07:49:22;8.00;;;4.60;;
14554;SDS011;7364;50.870;4.722;2023-05-07T07:51:49;10.77;;;4.47;;
14554;SDS011;7364;50.870;4.722;2023-05-07T07:54:17;11.23;;;4.40;;
14554;SDS011;7364;50.870;4.722;2023-05-07T07:56:44;6.03;;;4.20;;
14554;SDS011;7364;50.870;4.722;2023-05-07T07:59:13;8.10;;;3.90;;
14554;SDS011;7364;50.870;4.722;2023-05-07T08:01:44;6.20;;;3.63;;
14554;SDS011;7364;50.870;4.722;2023-05-07T08:04:13;5.67;;;3.60;;
14554;SDS011;7364;50.870;4.722;2023-05-07T08:06:40;8.23;;;3.13;;
14554;SDS011;7364;50.870;4.722;2023-05-07T08:09:08;4.73;;;3.03;;
14554;SDS011;7364;50.870;4.722;2023-05-07T08:11:35;6.43;;;3.77;;
14554;SDS011;7364;50.870;4.722;2023-05-07T08:14:03;7.50;;;3.93;;
14554;SDS011;7364;50.870;4.722;2023-05-07T08:16:32;3.87;;;3.07;;
14554;SDS011;7364;50.870;4.722;2023-05-07T08:18:59;5.87;;;3.97;;
14554;SDS011;7364;50.870;4.722;2023-05-07T08:21:26;6.67;;;3.93;;
14554;SDS011;7364;50.870;4.722;2023-05-07T08:23:53;6.40;;;4.00;;
14554;SDS011;7364;50.870;4.722;2023-05-07T08:26:20;9.70;;;4.23;;
14554;SDS011;7364;50.870;4.722;2023-05-07T08:28:48;5.30;;;4.23;;
14554;SDS011;7364;50.870;4.722;2023-05-07T08:31:15;8.23;;;4.37;;
14554;SDS011;7364;50.870;4.722;2023-05-07T08:33:44;6.17;;;4.63;;
14554;SDS011;7364;50.870;4.722;2023-05-07T08:36:11;4.97;;;3.63;;
14554;SDS011;7364;50.870;4.722;2023-05-07T08:38:39;7.33;;;3.77;;
14554;SDS011;7364;50.870;4.722;2023-05-07T08:41:09;6.10;;;4.00;;
14554;SDS011;7364;50.870;4.722;2023-05-07T08:43:37;6.77;;;3.97;;
14554;SDS011;7364;50.870;4.722;2023-05-07T08:46:06;5.07;;;3.73;;
14554;SDS011;7364;50.870;4.722;2023-05-07T08:48:36;6.30;;;3.30;;
14554;SDS011;7364;50.870;4.722;2023-05-07T08:51:05;9.53;;;3.57;;
14554;SDS011;7364;50.870;4.722;2023-05-07T08:53:32;5.57;;;3.40;;
14554;SDS011;7364;50.870;4.722;2023-05-07T08:56:00;6.33;;;3.67;;
14554;SDS011;7364;50.870;4.722;2023-05-07T08:58:28;7.67;;;3.70;;
14554;SDS011;7364;50.870;4.722;2023-05-07T09:00:56;6.00;;;4.30;;
14554;SDS011;7364;50.870;4.722;2023-05-07T09:03:23;6.67;;;3.77;;
14554;SDS011;7364;50.870;4.722;2023-05-07T09:05:51;5.57;;;3.43;;
14554;SDS011;7364;50.870;4.722;2023-05-07T09:08:23;5.40;;;3.07;;
14554;SDS011;7364;50.870;4.722;2023-05-07T09:10:52;7.20;;;3.07;;
14554;SDS011;7364;50.870;4.722;2023-05-07T09:13:20;4.83;;;3.57;;
14554;SDS011;7364;50.870;4.722;2023-05-07T09:15:47;7.47;;;4.00;;
14554;SDS011;7364;50.870;4.722;2023-05-07T09:18:14;5.47;;;3.43;;
14554;SDS011;7364;50.870;4.722;2023-05-07T09:20:41;4.97;;;3.97;;
14554;SDS011;7364;50.870;4.722;2023-05-07T09:23:08;5.80;;;3.77;;
14554;SDS011;7364;50.870;4.722;2023-05-07T09:25:37;5.70;;;3.80;;
14554;SDS011;7364;50.870;4.722;2023-05-07T09:28:04;7.20;;;3.47;;
14554;SDS011;7364;50.870;4.722;2023-05-07T09:30:32;6.17;;;4.00;;
14554;SDS011;7364;50.870;4.722;2023-05-07T09:33:01;6.20;;;4.10;;
14554;SDS011;7364;50.870;4.722;2023-05-07T09:35:30;5.23;;;4.07;;
14554;SDS011;7364;50.870;4.722;2023-05-07T09:37:57;7.20;;;4.13;;
14554;SDS011;7364;50.870;4.722;2023-05-07T09:40:26;6.83;;;4.33;;
14554;SDS011;7364;50.870;4.722;2023-05-07T09:42:55;8.77;;;4.63;;
14554;SDS011;7364;50.870;4.722;2023-05-07T09:45:23;6.40;;;4.33;;
14554;SDS011;7364;50.870;4.722;2023-05-07T09:47:53;7.27;;;5.37;;
14554;SDS011;7364;50.870;4.722;2023-05-07T09:50:22;7.43;;;3.43;;
14554;SDS011;7364;50.870;4.722;2023-05-07T09:52:54;6.80;;;4.50;;
14554;SDS011;7364;50.870;4.722;2023-05-07T09:55:22;6.47;;;4.67;;
14554;SDS011;7364;50.870;4.722;2023-05-07T09:57:49;10.07;;;4.93;;
14554;SDS011;7364;50.870;4.722;2023-05-07T10:00:19;9.57;;;4.43;;
14554;SDS011;7364;50.870;4.722;2023-05-07T10:02:47;10.47;;;4.67;;
14554;SDS011;7364;50.870;4.722;2023-05-07T10:05:17;9.10;;;4.37;;
14554;SDS011;7364;50.870;4.722;2023-05-07T10:07:45;7.60;;;4.17;;
14554;SDS011;7364;50.870;4.722;2023-05-07T10:10:13;5.53;;;4.33;;
14554;SDS011;7364;50.870;4.722;2023-05-07T10:12:41;5.00;;;3.63;;
14554;SDS011;7364;50.870;4.722;2023-05-07T10:15:09;5.33;;;3.63;;
14554;SDS011;7364;50.870;4.722;2023-05-07T10:17:38;5.00;;;3.47;;
14554;SDS011;7364;50.870;4.722;2023-05-07T10:20:06;5.83;;;3.47;;
14554;SDS011;7364;50.870;4.722;2023-05-07T10:22:37;5.30;;;3.30;;
14554;SDS011;7364;50.870;4.722;2023-05-07T10:25:06;7.27;;;3.30;;
14554;SDS011;7364;50.870;4.722;2023-05-07T10:27:40;6.33;;;3.30;;
14554;SDS011;7364;50.870;4.722;2023-05-07T10:30:12;7.90;;;3.50;;
14554;SDS011;7364;50.870;4.722;2023-05-07T10:32:50;10.13;;;4.00;;
14554;SDS011;7364;50.870;4.722;2023-05-07T10:35:21;6.57;;;3.47;;
14554;SDS011;7364;50.870;4.722;2023-05-07T10:37:52;6.10;;;3.33;;
14554;SDS011;7364;50.870;4.722;2023-05-07T10:40:20;6.60;;;3.40;;
14554;SDS011;7364;50.870;4.722;2023-05-07T10:42:54;6.50;;;3.50;;
14554;SDS011;7364;50.870;4.722;2023-05-07T10:45:23;5.63;;;3.37;;
14554;SDS011;7364;50.870;4.722;2023-05-07T10:48:11;10.37;;;3.80;;
14554;SDS011;7364;50.870;4.722;2023-05-07T10:50:39;5.27;;;3.80;;
14554;SDS011;7364;50.870;4.722;2023-05-07T10:53:23;6.53;;;4.00;;
14554;SDS011;7364;50.870;4.722;2023-05-07T10:58:56;7.13;;;3.13;;
14554;SDS011;7364;50.870;4.722;2023-05-07T11:01:50;4.97;;;2.53;;
14554;SDS011;7364;50.870;4.722;2023-05-07T11:04:21;3.90;;;2.60;;
14554;SDS011;7364;50.870;4.722;2023-05-07T11:09:56;5.07;;;3.10;;
14554;SDS011;7364;50.870;4.722;2023-05-07T11:15:34;6.23;;;2.83;;
14554;SDS011;7364;50.870;4.722;2023-05-07T11:18:07;8.30;;;3.63;;
14554;SDS011;7364;50.870;4.722;2023-05-07T11:20:52;3.90;;;2.90;;
14554;SDS011;7364;50.870;4.722;2023-05-07T11:26:25;5.50;;;2.57;;
14554;SDS011;7364;50.870;4.722;2023-05-07T11:28:53;5.20;;;2.70;;
14554;SDS011;7364;50.870;4.722;2023-05-07T11:31:22;3.70;;;2.30;;
14554;SDS011;7364;50.870;4.722;2023-05-07T11:33:52;5.20;;;2.33;;
14554;SDS011;7364;50.870;4.722;2023-05-07T11:36:21;7.87;;;2.30;;
14554;SDS011;7364;50.870;4.722;2023-05-07T11:38:49;4.30;;;2.27;;
14554;SDS011;7364;50.870;4.722;2023-05-07T11:41:17;5.00;;;2.43;;
14554;SDS011;7364;50.870;4.722;2023-05-07T11:43:53;6.20;;;2.40;;
14554;SDS011;7364;50.870;4.722;2023-05-07T11:46:22;3.47;;;2.27;;
14554;SDS011;7364;50.870;4.722;2023-05-07T11:48:49;4.97;;;2.33;;
14554;SDS011;7364;50.870;4.722;2023-05-07T11:51:21;4.83;;;2.10;;
14554;SDS011;7364;50.870;4.722;2023-05-07T11:53:51;2.97;;;2.10;;
14554;SDS011;7364;50.870;4.722;2023-05-07T11:56:19;6.07;;;2.30;;
14554;SDS011;7364;50.870;4.722;2023-05-07T11:58:47;5.00;;;2.43;;
14554;SDS011;7364;50.870;4.722;2023-05-07T12:01:15;4.93;;;2.60;;
14554;SDS011;7364;50.870;4.722;2023-05-07T12:03:44;4.87;;;2.40;;
14554;SDS011;7364;50.870;4.722;2023-05-07T12:06:12;7.00;;;2.50;;
14554;SDS011;7364;50.870;4.722;2023-05-07T12:08:43;4.07;;;2.90;;
14554;SDS011;7364;50.870;4.722;2023-05-07T12:11:12;6.20;;;2.70;;
14554;SDS011;7364;50.870;4.722;2023-05-07T12:13:43;4.33;;;2.57;;
14554;SDS011;7364;50.870;4.722;2023-05-07T12:16:10;5.40;;;2.80;;
14554;SDS011;7364;50.870;4.722;2023-05-07T12:18:38;5.23;;;2.40;;
14554;SDS011;7364;50.870;4.722;2023-05-07T12:21:06;3.90;;;2.20;;
14554;SDS011;7364;50.870;4.722;2023-05-07T12:23:34;3.63;;;2.00;;
14554;SDS011;7364;50.870;4.722;2023-05-07T12:26:04;4.80;;;1.97;;
14554;SDS011;7364;50.870;4.722;2023-05-07T12:28:35;4.43;;;1.73;;
14554;SDS011;7364;50.870;4.722;2023-05-07T12:31:03;2.80;;;1.50;;
14554;SDS011;7364;50.870;4.722;2023-05-07T12:33:31;7.43;;;2.63;;
14554;SDS011;7364;50.870;4.722;2023-05-07T12:36:02;3.83;;;1.80;;
14554;SDS011;7364;50.870;4.722;2023-05-07T12:38:34;3.90;;;1.90;;
14554;SDS011;7364;50.870;4.722;2023-05-07T12:41:04;3.37;;;1.60;;
14554;SDS011;7364;50.870;4.722;2023-05-07T12:43:32;3.00;;;2.10;;
14554;SDS011;7364;50.870;4.722;2023-05-07T12:46:00;4.20;;;2.20;;
14554;SDS011;7364;50.870;4.722;2023-05-07T12:48:28;4.23;;;2.27;;
14554;SDS011;7364;50.870;4.722;2023-05-07T12:50:56;3.93;;;1.90;;
14554;SDS011;7364;50.870;4.722;2023-05-07T12:53:24;3.47;;;1.90;;
14554;SDS011;7364;50.870;4.722;2023-05-07T12:55:52;4.37;;;2.10;;
14554;SDS011;7364;50.870;4.722;2023-05-07T12:58:24;5.53;;;2.10;;
14554;SDS011;7364;50.870;4.722;2023-05-07T13:00:52;2.43;;;1.77;;
14554;SDS011;7364;50.870;4.722;2023-05-07T13:03:23;4.07;;;1.70;;
14554;SDS011;7364;50.870;4.722;2023-05-07T13:05:52;3.27;;;2.00;;
14554;SDS011;7364;50.870;4.722;2023-05-07T13:08:24;4.37;;;2.57;;
14554;SDS011;7364;50.870;4.722;2023-05-07T13:10:55;5.60;;;2.10;;
14554;SDS011;7364;50.870;4.722;2023-05-07T13:13:24;4.57;;;2.20;;
14554;SDS011;7364;50.870;4.722;2023-05-07T13:15:51;3.20;;;1.87;;
14554;SDS011;7364;50.870;4.722;2023-05-07T13:18:18;2.70;;;1.93;;
14554;SDS011;7364;50.870;4.722;2023-05-07T13:20:46;6.17;;;2.07;;
14554;SDS011;7364;50.870;4.722;2023-05-07T13:23:13;5.07;;;2.27;;
14554;SDS011;7364;50.870;4.722;2023-05-07T13:25:40;3.70;;;2.30;;
14554;SDS011;7364;50.870;4.722;2023-05-07T13:28:07;4.70;;;2.30;;
14554;SDS011;7364;50.870;4.722;2023-05-07T13:30:36;3.20;;;2.20;;
14554;SDS011;7364;50.870;4.722;2023-05-07T13:33:03;2.87;;;2.07;;
14554;SDS011;7364;50.870;4.722;2023-05-07T13:35:30;4.80;;;2.57;;
14554;SDS011;7364;50.870;4.722;2023-05-07T13:37:58;3.30;;;2.23;;
14554;SDS011;7364;50.870;4.722;2023-05-07T13:40:25;3.53;;;2.07;;
14554;SDS011;7364;50.870;4.722;2023-05-07T13:42:52;2.87;;;2.07;;
14554;SDS011;7364;50.870;4.722;2023-05-07T13:45:20;4.10;;;2.47;;
14554;SDS011;7364;50.870;4.722;2023-05-07T13:47:52;2.93;;;2.00;;
14554;SDS011;7364;50.870;4.722;2023-05-07T13:50:19;4.13;;;2.43;;
14554;SDS011;7364;50.870;4.722;2023-05-07T13:52:46;2.80;;;1.97;;
14554;SDS011;7364;50.870;4.722;2023-05-07T13:55:16;3.63;;;2.10;;
14554;SDS011;7364;50.870;4.722;2023-05-07T13:57:43;6.83;;;2.20;;
14554;SDS011;7364;50.870;4.722;2023-05-07T14:00:11;7.17;;;2.40;;
14554;SDS011;7364;50.870;4.722;2023-05-07T14:02:39;5.40;;;2.27;;
14554;SDS011;7364;50.870;4.722;2023-05-07T14:05:08;4.57;;;2.50;;
14554;SDS011;7364;50.870;4.722;2023-05-07T14:07:35;4.60;;;2.33;;
14554;SDS011;7364;50.870;4.722;2023-05-07T14:10:03;4.57;;;2.23;;
14554;SDS011;7364;50.870;4.722;2023-05-07T14:12:31;6.70;;;2.80;;
14554;SDS011;7364;50.870;4.722;2023-05-07T14:14:58;2.60;;;1.93;;
14554;SDS011;7364;50.870;4.722;2023-05-07T14:17:28;3.47;;;2.23;;
14554;SDS011;7364;50.870;4.722;2023-05-07T14:20:05;7.50;;;2.90;;
14554;SDS011;7364;50.870;4.722;2023-05-07T14:22:34;4.07;;;2.33;;
14554;SDS011;7364;50.870;4.722;2023-05-07T14:25:01;2.93;;;2.10;;
14554;SDS011;7364;50.870;4.722;2023-05-07T14:27:29;5.47;;;2.70;;
14554;SDS011;7364;50.870;4.722;2023-05-07T14:29:56;3.80;;;2.20;;
14554;SDS011;7364;50.870;4.722;2023-05-07T14:32:23;4.47;;;2.70;;
14554;SDS011;7364;50.870;4.722;2023-05-07T14:34:50;7.13;;;2.50;;
14554;SDS011;7364;50.870;4.722;2023-05-07T14:37:17;5.33;;;2.93;;
14554;SDS011;7364;50.870;4.722;2023-05-07T14:39:47;3.83;;;2.60;;
14554;SDS011;7364;50.870;4.722;2023-05-07T14:42:14;5.93;;;2.80;;
14554;SDS011;7364;50.870;4.722;2023-05-07T14:44:41;5.30;;;2.37;;
14554;SDS011;7364;50.870;4.722;2023-05-07T14:47:10;3.50;;;2.30;;
14554;SDS011;7364;50.870;4.722;2023-05-07T14:49:37;3.23;;;2.23;;
14554;SDS011;7364;50.870;4.722;2023-05-07T14:52:05;5.03;;;2.40;;
14554;SDS011;7364;50.870;4.722;2023-05-07T14:54:35;3.77;;;2.57;;
14554;SDS011;7364;50.870;4.722;2023-05-07T14:57:04;5.43;;;2.83;;
14554;SDS011;7364;50.870;4.722;2023-05-07T14:59:32;3.23;;;2.30;;
14554;SDS011;7364;50.870;4.722;2023-05-07T15:02:00;4.03;;;2.63;;
14554;SDS011;7364;50.870;4.722;2023-05-07T15:04:32;4.93;;;2.47;;
14554;SDS011;7364;50.870;4.722;2023-05-07T15:06:59;3.87;;;2.40;;
14554;SDS011;7364;50.870;4.722;2023-05-07T15:09:27;3.77;;;2.40;;
14554;SDS011;7364;50.870;4.722;2023-05-07T15:11:54;3.47;;;2.90;;